sensor_id;sensor_type;location;lat;lon;timestamp;pressure;altitude;pressure_sealevel;temperature;humidity
74441;BME280;62870;54.692;25.284;2022-10-23T00:04:22;1023.6;;;9.7;75.2
74441;BME280;62870;54.692;25.284;2022-10-23T00:09:04;1023.6;;;9.7;75.5
74441;BME280;62870;54.692;25.284;2022-10-23T00:14:04;1023.6;;;9.6;75.9
74441;BME280;62870;54.692;25.284;2022-10-23T00:18:47;1023.6;;;9.6;75.9
74441;BME280;62870;54.692;25.284;2022-10-23T00:24:15;1023.6;;;9.7;76.3
74441;BME280;62870;54.692;25.284;2022-10-23T00:29:21;1023.6;;;9.6;76.1
74441;BME280;62870;54.692;25.284;2022-10-23T00:34:15;1023.7;;;9.6;76.1
74441;BME280;62870;54.692;25.284;2022-10-23T00:38:42;1023.7;;;9.5;76.3
74441;BME280;62870;54.692;25.284;2022-10-23T00:43:58;1023.7;;;9.4;77.1
74441;BME280;62870;54.692;25.284;2022-10-23T00:49:04;1023.7;;;9.4;77.4
74441;BME280;62870;54.692;25.284;2022-10-23T00:53:56;1023.7;;;9.5;77.6
74441;BME280;62870;54.692;25.284;2022-10-23T00:58:55;1023.7;;;9.5;77.7
74441;BME280;62870;54.692;25.284;2022-10-23T01:03:55;1023.7;;;9.5;77.7
74441;BME280;62870;54.692;25.284;2022-10-23T01:09:03;1023.7;;;9.6;77.2
74441;BME280;62870;54.692;25.284;2022-10-23T01:14:05;1023.7;;;9.6;77.4
74441;BME280;62870;54.692;25.284;2022-10-23T01:19:26;1023.7;;;9.6;77.5
74441;BME280;62870;54.692;25.284;2022-10-23T01:24:14;1023.7;;;9.6;77.6
74441;BME280;62870;54.692;25.284;2022-10-23T01:29:24;1023.7;;;9.6;77.8
74441;BME280;62870;54.692;25.284;2022-10-23T01:33:58;1023.7;;;9.6;77.7
74441;BME280;62870;54.692;25.284;2022-10-23T01:38:42;1023.7;;;9.6;77.8
74441;BME280;62870;54.692;25.284;2022-10-23T01:44:22;1023.7;;;9.7;77.8
74441;BME280;62870;54.692;25.284;2022-10-23T01:49:07;1023.7;;;9.7;77.1
74441;BME280;62870;54.692;25.284;2022-10-23T01:54:06;1023.7;;;9.8;77.4
74441;BME280;62870;54.692;25.284;2022-10-23T01:59:16;1023.7;;;9.8;77.6
74441;BME280;62870;54.692;25.284;2022-10-23T02:04:14;1023.7;;;9.9;77.5
74441;BME280;62870;54.692;25.284;2022-10-23T02:09:05;1023.6;;;9.9;77
74441;BME280;62870;54.692;25.284;2022-10-23T02:14:19;1023.6;;;9.9;77
74441;BME280;62870;54.692;25.284;2022-10-23T02:19:23;1023.7;;;9.9;77.2
74441;BME280;62870;54.692;25.284;2022-10-23T02:23:58;1023.7;;;9.9;77.2
74441;BME280;62870;54.692;25.284;2022-10-23T02:28:56;1023.8;;;9.9;77.5
74441;BME280;62870;54.692;25.284;2022-10-23T02:34:26;1023.8;;;10;77.4
74441;BME280;62870;54.692;25.284;2022-10-23T02:39:24;1023.8;;;10.1;77.2
74441;BME280;62870;54.692;25.284;2022-10-23T02:44:24;1023.9;;;10.1;77
74441;BME280;62870;54.692;25.284;2022-10-23T02:49:06;1023.9;;;10;76.9
74441;BME280;62870;54.692;25.284;2022-10-23T02:54:30;1023.9;;;10;77
74441;BME280;62870;54.692;25.284;2022-10-23T02:59:30;1023.9;;;10;77.3
74441;BME280;62870;54.692;25.284;2022-10-23T03:04:07;1023.9;;;10.1;77.4
74441;BME280;62870;54.692;25.284;2022-10-23T03:09:05;1023.9;;;10.1;77.4
74441;BME280;62870;54.692;25.284;2022-10-23T03:13:43;1023.9;;;10.1;76.9
74441;BME280;62870;54.692;25.284;2022-10-23T03:19:05;1023.9;;;10.1;77.1
74441;BME280;62870;54.692;25.284;2022-10-23T03:23:53;1023.9;;;10;77.4
74441;BME280;62870;54.692;25.284;2022-10-23T03:29:09;1023.9;;;10.1;77.6
74441;BME280;62870;54.692;25.284;2022-10-23T03:34:27;1024;;;10.2;77.5
74441;BME280;62870;54.692;25.284;2022-10-23T03:39:13;1024;;;10.2;77.1
74441;BME280;62870;54.692;25.284;2022-10-23T03:44:05;1024;;;10.2;77
74441;BME280;62870;54.692;25.284;2022-10-23T03:49:25;1024;;;10.1;76.9
74441;BME280;62870;54.692;25.284;2022-10-23T03:54:13;1024;;;10.1;77.2
74441;BME280;62870;54.692;25.284;2022-10-23T03:59:26;1024;;;10.1;77.5
74441;BME280;62870;54.692;25.284;2022-10-23T04:03:41;1023.9;;;10.3;77.2
74441;BME280;62870;54.692;25.284;2022-10-23T04:08:59;1023.9;;;10.3;77.3
74441;BME280;62870;54.692;25.284;2022-10-23T04:14:27;1023.9;;;10.3;77.3
74441;BME280;62870;54.692;25.284;2022-10-23T04:19:19;1023.9;;;10.3;77.1
74441;BME280;62870;54.692;25.284;2022-10-23T04:23:43;1023.9;;;10.2;77.4
74441;BME280;62870;54.692;25.284;2022-10-23T04:29:07;1023.9;;;10.2;77.4
74441;BME280;62870;54.692;25.284;2022-10-23T04:34:01;1023.9;;;10.2;77.4
74441;BME280;62870;54.692;25.284;2022-10-23T04:39:05;1023.9;;;10.3;77.5
74441;BME280;62870;54.692;25.284;2022-10-23T04:44:09;1023.9;;;10.3;77.5
74441;BME280;62870;54.692;25.284;2022-10-23T04:49:27;1023.9;;;10.3;77.3
74441;BME280;62870;54.692;25.284;2022-10-23T04:53:57;1023.8;;;10.2;77.5
74441;BME280;62870;54.692;25.284;2022-10-23T04:59:08;1023.9;;;10.2;77.9
74441;BME280;62870;54.692;25.284;2022-10-23T05:03:51;1023.9;;;10.3;78.1
74441;BME280;62870;54.692;25.284;2022-10-23T05:09:27;1023.9;;;10.3;78.4
74441;BME280;62870;54.692;25.284;2022-10-23T05:14:15;1023.9;;;10.2;78.5
74441;BME280;62870;54.692;25.284;2022-10-23T05:19:04;1023.9;;;10.2;78.5
74441;BME280;62870;54.692;25.284;2022-10-23T05:24:06;1023.9;;;10.2;79
74441;BME280;62870;54.692;25.284;2022-10-23T05:29:05;1024;;;10.2;79.1
74441;BME280;62870;54.692;25.284;2022-10-23T05:34:28;1024;;;10.2;79.5
74441;BME280;62870;54.692;25.284;2022-10-23T05:39:05;1024;;;10.3;79.7
74441;BME280;62870;54.692;25.284;2022-10-23T05:43:43;1024;;;10.4;79.4
74441;BME280;62870;54.692;25.284;2022-10-23T05:48:43;1024;;;10.4;79.4
74441;BME280;62870;54.692;25.284;2022-10-23T05:53:43;1024;;;10.4;79.4
74441;BME280;62870;54.692;25.284;2022-10-23T05:59:11;1024.1;;;10.4;79.5
74441;BME280;62870;54.692;25.284;2022-10-23T06:04:19;1024.1;;;10.4;80
74441;BME280;62870;54.692;25.284;2022-10-23T06:09:14;1024.2;;;10.5;80.1
74441;BME280;62870;54.692;25.284;2022-10-23T06:14:27;1024.2;;;10.6;79.8
74441;BME280;62870;54.692;25.284;2022-10-23T06:19:08;1024.1;;;10.6;79.8
74441;BME280;62870;54.692;25.284;2022-10-23T06:24:29;1024.1;;;10.7;79.7
74441;BME280;62870;54.692;25.284;2022-10-23T06:29:30;1024.1;;;10.7;79.5
74441;BME280;62870;54.692;25.284;2022-10-23T06:34:08;1024.1;;;10.7;79.5
74441;BME280;62870;54.692;25.284;2022-10-23T06:39:09;1024.1;;;10.9;80
74441;BME280;62870;54.692;25.284;2022-10-23T06:43:57;1024.2;;;11;79.8
74441;BME280;62870;54.692;25.284;2022-10-23T06:49:29;1024.2;;;11.1;79.7
74441;BME280;62870;54.692;25.284;2022-10-23T06:54:19;1024.2;;;11.2;79.4
74441;BME280;62870;54.692;25.284;2022-10-23T06:59:17;1024.2;;;11.2;79.3
74441;BME280;62870;54.692;25.284;2022-10-23T07:04:19;1024.2;;;11.3;78.9
74441;BME280;62870;54.692;25.284;2022-10-23T07:09:14;1024.2;;;11.4;79.1
74441;BME280;62870;54.692;25.284;2022-10-23T07:14:05;1024.2;;;11.5;79
74441;BME280;62870;54.692;25.284;2022-10-23T07:19:12;1024.2;;;11.6;78.9
74441;BME280;62870;54.692;25.284;2022-10-23T07:23:43;1024.3;;;11.7;78.6
74441;BME280;62870;54.692;25.284;2022-10-23T07:28:44;1024.3;;;11.7;78.7
74441;BME280;62870;54.692;25.284;2022-10-23T07:33:58;1024.3;;;11.7;78.7
74441;BME280;62870;54.692;25.284;2022-10-23T07:39:26;1024.3;;;11.7;78.9
74441;BME280;62870;54.692;25.284;2022-10-23T07:44:18;1024.3;;;11.9;79
74441;BME280;62870;54.692;25.284;2022-10-23T07:48:44;1024.3;;;12;79.1
74441;BME280;62870;54.692;25.284;2022-10-23T07:54:06;1024.4;;;12.1;78.9
74441;BME280;62870;54.692;25.284;2022-10-23T07:59:18;1024.4;;;12.1;78.6
74441;BME280;62870;54.692;25.284;2022-10-23T08:04:30;1024.5;;;12.1;78.7
74441;BME280;62870;54.692;25.284;2022-10-23T08:09:08;1024.5;;;12.2;78.9
74441;BME280;62870;54.692;25.284;2022-10-23T08:13:58;1024.6;;;12.3;79.3
74441;BME280;62870;54.692;25.284;2022-10-23T08:18:44;1024.6;;;12.4;79.3
74441;BME280;62870;54.692;25.284;2022-10-23T08:23:51;1024.6;;;12.5;79
74441;BME280;62870;54.692;25.284;2022-10-23T08:28:44;1024.7;;;12.6;78.6
74441;BME280;62870;54.692;25.284;2022-10-23T08:34:10;1024.7;;;12.6;78.6
74441;BME280;62870;54.692;25.284;2022-10-23T08:38:55;1024.7;;;12.7;78.6
74441;BME280;62870;54.692;25.284;2022-10-23T08:44:30;1024.8;;;12.8;78.7
74441;BME280;62870;54.692;25.284;2022-10-23T08:48:50;1024.8;;;12.9;78.4
74441;BME280;62870;54.692;25.284;2022-10-23T08:54:32;1024.9;;;13;77.8
74441;BME280;62870;54.692;25.284;2022-10-23T08:59:28;1024.9;;;13.1;77.7
74441;BME280;62870;54.692;25.284;2022-10-23T09:03:44;1025;;;13;77.4
74441;BME280;62870;54.692;25.284;2022-10-23T09:08:46;1025;;;12.9;77.8
74441;BME280;62870;54.692;25.284;2022-10-23T09:13:47;1025.1;;;12.9;78
74441;BME280;62870;54.692;25.284;2022-10-23T09:19:22;1025.1;;;12.9;78.1
74441;BME280;62870;54.692;25.284;2022-10-23T09:24:28;1025.2;;;13;78
74441;BME280;62870;54.692;25.284;2022-10-23T09:29:20;1025.2;;;13.1;77.7
74441;BME280;62870;54.692;25.284;2022-10-23T09:34:21;1025.2;;;13.1;77.3
74441;BME280;62870;54.692;25.284;2022-10-23T09:39:20;1025.2;;;13.1;76.8
74441;BME280;62870;54.692;25.284;2022-10-23T09:43:58;1025.3;;;13.2;76.8
74441;BME280;62870;54.692;25.284;2022-10-23T09:49:19;1025.3;;;13.3;76.2
74441;BME280;62870;54.692;25.284;2022-10-23T09:54:28;1025.3;;;13.3;75.7
74441;BME280;62870;54.692;25.284;2022-10-23T09:58:51;1025.3;;;13.3;75.3
74441;BME280;62870;54.692;25.284;2022-10-23T10:03:47;1025.3;;;13.3;75.1
74441;BME280;62870;54.692;25.284;2022-10-23T10:09:26;1025.3;;;13.3;74.9
74441;BME280;62870;54.692;25.284;2022-10-23T10:14:17;1025.3;;;13.2;75.1
74441;BME280;62870;54.692;25.284;2022-10-23T10:19:31;1025.3;;;13.3;75.5
74441;BME280;62870;54.692;25.284;2022-10-23T10:24:07;1025.3;;;13.4;75.5
74441;BME280;62870;54.692;25.284;2022-10-23T10:29:29;1025.3;;;13.4;75.1
74441;BME280;62870;54.692;25.284;2022-10-23T10:34:28;1025.3;;;13.4;74.8
74441;BME280;62870;54.692;25.284;2022-10-23T10:39:08;1025.3;;;13.3;74.6
74441;BME280;62870;54.692;25.284;2022-10-23T10:44:09;1025.3;;;13.3;75
74441;BME280;62870;54.692;25.284;2022-10-23T10:49:06;1025.3;;;13.4;74.7
74441;BME280;62870;54.692;25.284;2022-10-23T10:54:01;1025.3;;;13.6;74.3
74441;BME280;62870;54.692;25.284;2022-10-23T10:58:58;1025.4;;;13.6;73.9
74441;BME280;62870;54.692;25.284;2022-10-23T11:04:30;1025.3;;;13.6;73.6
74441;BME280;62870;54.692;25.284;2022-10-23T11:09:30;1025.3;;;13.6;73.4
74441;BME280;62870;54.692;25.284;2022-10-23T11:14:16;1025.3;;;13.5;73.2
74441;BME280;62870;54.692;25.284;2022-10-23T11:18:45;1025.3;;;13.6;73.2
74441;BME280;62870;54.692;25.284;2022-10-23T11:24:38;1025.4;;;13.6;72.8
74441;BME280;62870;54.692;25.284;2022-10-23T11:30:21;1025.4;;;13.7;72.5
74441;BME280;62870;54.692;25.284;2022-10-23T11:35:38;1025.4;;;13.7;71.5
74441;BME280;62870;54.692;25.284;2022-10-23T11:38:44;1025.4;;;13.7;70.1
74441;BME280;62870;54.692;25.284;2022-10-23T11:44:23;1025.4;;;13.7;69
74441;BME280;62870;54.692;25.284;2022-10-23T11:49:28;1025.5;;;13.7;69.5
74441;BME280;62870;54.692;25.284;2022-10-23T11:54:03;1025.5;;;13.7;69.3
74441;BME280;62870;54.692;25.284;2022-10-23T11:59:18;1025.5;;;13.7;69.2
74441;BME280;62870;54.692;25.284;2022-10-23T12:04:20;1025.5;;;13.8;68.5
74441;BME280;62870;54.692;25.284;2022-10-23T12:08:48;1025.5;;;13.9;67.5
74441;BME280;62870;54.692;25.284;2022-10-23T12:14:12;1025.5;;;14;66.5
74441;BME280;62870;54.692;25.284;2022-10-23T12:19:42;1025.6;;;14.4;65.4
74441;BME280;62870;54.692;25.284;2022-10-23T12:24:33;1025.6;;;14.5;64.9
74441;BME280;62870;54.692;25.284;2022-10-23T12:28:46;1025.6;;;14.5;64.7
74441;BME280;62870;54.692;25.284;2022-10-23T12:34:12;1025.6;;;14.5;63.8
74441;BME280;62870;54.692;25.284;2022-10-23T12:39:28;1025.6;;;14.5;61.8
74441;BME280;62870;54.692;25.284;2022-10-23T12:44:30;1025.6;;;14.8;60.2
74441;BME280;62870;54.692;25.284;2022-10-23T12:49:30;1025.6;;;16;57.3
74441;BME280;62870;54.692;25.284;2022-10-23T12:53:58;1025.5;;;16.5;56.4
74441;BME280;62870;54.692;25.284;2022-10-23T12:59:20;1025.6;;;17.5;54.4
74441;BME280;62870;54.692;25.284;2022-10-23T13:04:27;1025.6;;;19.4;48.9
74441;BME280;62870;54.692;25.284;2022-10-23T13:08:58;1025.6;;;22.2;41.3
74441;BME280;62870;54.692;25.284;2022-10-23T13:14:31;1025.5;;;24.9;35.6
74441;BME280;62870;54.692;25.284;2022-10-23T13:19:04;1025.6;;;26.2;34.2
74441;BME280;62870;54.692;25.284;2022-10-23T13:23:44;1025.7;;;27.4;34.1
74441;BME280;62870;54.692;25.284;2022-10-23T13:29:15;1025.6;;;27.7;33.1
74441;BME280;62870;54.692;25.284;2022-10-23T13:34:22;1025.7;;;27.6;32.6
74441;BME280;62870;54.692;25.284;2022-10-23T13:39:29;1025.7;;;24.7;33.9
74441;BME280;62870;54.692;25.284;2022-10-23T13:44:16;1025.7;;;21.1;39.4
74441;BME280;62870;54.692;25.284;2022-10-23T13:48:44;1025.8;;;19.2;43.1
74441;BME280;62870;54.692;25.284;2022-10-23T13:54:30;1025.9;;;20.6;41.8
74441;BME280;62870;54.692;25.284;2022-10-23T13:59:16;1025.9;;;19.3;45.2
74441;BME280;62870;54.692;25.284;2022-10-23T14:04:28;1025.9;;;18.2;48.2
74441;BME280;62870;54.692;25.284;2022-10-23T14:08:44;1026;;;17.7;50.6
74441;BME280;62870;54.692;25.284;2022-10-23T14:13:58;1026;;;16.9;53
74441;BME280;62870;54.692;25.284;2022-10-23T14:19:28;1026;;;15.8;56
74441;BME280;62870;54.692;25.284;2022-10-23T14:24:18;1026.1;;;15.4;56.8
74441;BME280;62870;54.692;25.284;2022-10-23T14:28:56;1026.1;;;15.1;57.3
74441;BME280;62870;54.692;25.284;2022-10-23T14:34:00;1026.2;;;14.9;58.5
74441;BME280;62870;54.692;25.284;2022-10-23T14:39:20;1026.2;;;14.5;61.1
74441;BME280;62870;54.692;25.284;2022-10-23T14:44:08;1026.2;;;14.3;62.3
74441;BME280;62870;54.692;25.284;2022-10-23T14:49:22;1026.3;;;14.1;62.9
74441;BME280;62870;54.692;25.284;2022-10-23T14:54:30;1026.3;;;14;62.7
74441;BME280;62870;54.692;25.284;2022-10-23T14:58:52;1026.3;;;13.8;62.8
74441;BME280;62870;54.692;25.284;2022-10-23T15:04:30;1026.4;;;13.6;63.2
74441;BME280;62870;54.692;25.284;2022-10-23T15:09:26;1026.3;;;13.4;64.8
74441;BME280;62870;54.692;25.284;2022-10-23T15:14:28;1026.3;;;13.3;65.6
74441;BME280;62870;54.692;25.284;2022-10-23T15:19:20;1026.3;;;13.2;65.9
74441;BME280;62870;54.692;25.284;2022-10-23T15:24:18;1026.3;;;13.1;65.5
74441;BME280;62870;54.692;25.284;2022-10-23T15:29:30;1026.3;;;13.1;65
74441;BME280;62870;54.692;25.284;2022-10-23T15:34:28;1026.4;;;13;64.8
74441;BME280;62870;54.692;25.284;2022-10-23T15:39:23;1026.4;;;13;65.6
74441;BME280;62870;54.692;25.284;2022-10-23T15:44:19;1026.4;;;12.9;65.8
74441;BME280;62870;54.692;25.284;2022-10-23T15:49:06;1026.4;;;12.9;65.8
74441;BME280;62870;54.692;25.284;2022-10-23T15:54:00;1026.5;;;13;65.5
74441;BME280;62870;54.692;25.284;2022-10-23T15:59:10;1026.5;;;13.1;65
74441;BME280;62870;54.692;25.284;2022-10-23T16:04:22;1026.5;;;13.1;64.7
74441;BME280;62870;54.692;25.284;2022-10-23T16:09:26;1026.5;;;13.1;64.6
74441;BME280;62870;54.692;25.284;2022-10-23T16:14:16;1026.5;;;13;64.5
74441;BME280;62870;54.692;25.284;2022-10-23T16:19:04;1026.6;;;13;64.6
74441;BME280;62870;54.692;25.284;2022-10-23T16:24:28;1026.6;;;13;64.4
74441;BME280;62870;54.692;25.284;2022-10-23T16:29:14;1026.6;;;13.1;64
74441;BME280;62870;54.692;25.284;2022-10-23T16:34:30;1026.7;;;13.1;63.8
74441;BME280;62870;54.692;25.284;2022-10-23T16:39:06;1026.7;;;13.1;63.8
74441;BME280;62870;54.692;25.284;2022-10-23T16:43:44;1026.7;;;13.1;63.8
74441;BME280;62870;54.692;25.284;2022-10-23T16:49:28;1026.7;;;13.1;63.8
74441;BME280;62870;54.692;25.284;2022-10-23T16:54:10;1026.7;;;13.1;63.8
74441;BME280;62870;54.692;25.284;2022-10-23T16:58:58;1026.7;;;13.2;63.8
74441;BME280;62870;54.692;25.284;2022-10-23T17:04:18;1026.8;;;13.3;63.6
74441;BME280;62870;54.692;25.284;2022-10-23T17:09:00;1026.8;;;13.3;63.6
74441;BME280;62870;54.692;25.284;2022-10-23T17:14:09;1026.7;;;13.3;63.8
74441;BME280;62870;54.692;25.284;2022-10-23T17:19:22;1026.7;;;13.3;63.9
74441;BME280;62870;54.692;25.284;2022-10-23T17:24:30;1026.7;;;13.4;63.9
74441;BME280;62870;54.692;25.284;2022-10-23T17:28:44;1026.7;;;13.5;63.8
74441;BME280;62870;54.692;25.284;2022-10-23T17:33:59;1026.7;;;13.5;63.6
74441;BME280;62870;54.692;25.284;2022-10-23T17:39:26;1026.7;;;13.6;63.6
74441;BME280;62870;54.692;25.284;2022-10-23T17:44:28;1026.7;;;13.6;63.5
74441;BME280;62870;54.692;25.284;2022-10-23T17:49:28;1026.7;;;13.6;63.6
74441;BME280;62870;54.692;25.284;2022-10-23T17:54:07;1026.7;;;13.6;63.9
74441;BME280;62870;54.692;25.284;2022-10-23T17:59:29;1026.8;;;13.6;64.1
74441;BME280;62870;54.692;25.284;2022-10-23T18:04:28;1026.8;;;13.6;64.2
74441;BME280;62870;54.692;25.284;2022-10-23T18:09:04;1026.8;;;13.5;64.3
74441;BME280;62870;54.692;25.284;2022-10-23T18:13:44;1026.9;;;13.4;64.8
74441;BME280;62870;54.692;25.284;2022-10-23T18:18:44;1026.9;;;13.3;65.3
74441;BME280;62870;54.692;25.284;2022-10-23T18:23:50;1026.9;;;13.3;65.7
74441;BME280;62870;54.692;25.284;2022-10-23T18:28:44;1026.9;;;13.3;66.2
74441;BME280;62870;54.692;25.284;2022-10-23T18:34:12;1026.9;;;13.3;66.1
74441;BME280;62870;54.692;25.284;2022-10-23T18:39:28;1026.9;;;13.3;66.2
74441;BME280;62870;54.692;25.284;2022-10-23T18:44:17;1026.9;;;13.3;66.1
74441;BME280;62870;54.692;25.284;2022-10-23T18:49:08;1026.9;;;13.2;66.6
74441;BME280;62870;54.692;25.284;2022-10-23T18:54:28;1027;;;13.1;67.3
74441;BME280;62870;54.692;25.284;2022-10-23T18:59:17;1027;;;13;68
74441;BME280;62870;54.692;25.284;2022-10-23T19:04:28;1027.1;;;13;68
74441;BME280;62870;54.692;25.284;2022-10-23T19:08:58;1027.1;;;13.1;67.9
74441;BME280;62870;54.692;25.284;2022-10-23T19:13:44;1027.2;;;13.1;67.7
74441;BME280;62870;54.692;25.284;2022-10-23T19:19:24;1027.1;;;13;68.3
74441;BME280;62870;54.692;25.284;2022-10-23T19:24:18;1027.1;;;12.9;68.7
74441;BME280;62870;54.692;25.284;2022-10-23T19:29:08;1027.1;;;12.9;68.9
74441;BME280;62870;54.692;25.284;2022-10-23T19:34:19;1027;;;12.9;69.2
74441;BME280;62870;54.692;25.284;2022-10-23T19:39:00;1027;;;12.9;68.9
74441;BME280;62870;54.692;25.284;2022-10-23T19:44:16;1027.1;;;12.9;68.7
74441;BME280;62870;54.692;25.284;2022-10-23T19:48:58;1027.1;;;12.9;68.8
74441;BME280;62870;54.692;25.284;2022-10-23T19:54:20;1027.1;;;12.9;69.1
74441;BME280;62870;54.692;25.284;2022-10-23T19:58:44;1027.1;;;12.8;69.2
74441;BME280;62870;54.692;25.284;2022-10-23T20:03:44;1027.1;;;12.8;69.5
74441;BME280;62870;54.692;25.284;2022-10-23T20:09:12;1027.1;;;12.9;69.5
74441;BME280;62870;54.692;25.284;2022-10-23T20:14:26;1027.2;;;12.9;69.3
74441;BME280;62870;54.692;25.284;2022-10-23T20:19:16;1027.2;;;12.8;69.2
74441;BME280;62870;54.692;25.284;2022-10-23T20:23:44;1027.2;;;12.8;69.4
74441;BME280;62870;54.692;25.284;2022-10-23T20:28:51;1027.2;;;12.7;69.6
74441;BME280;62870;54.692;25.284;2022-10-23T20:34:20;1027.2;;;12.7;69.9
74441;BME280;62870;54.692;25.284;2022-10-23T20:39:28;1027.3;;;12.7;70
74441;BME280;62870;54.692;25.284;2022-10-23T20:43:52;1027.2;;;12.7;69.9
74441;BME280;62870;54.692;25.284;2022-10-23T20:49:00;1027.2;;;12.7;70.2
74441;BME280;62870;54.692;25.284;2022-10-23T20:53:44;1027.2;;;12.7;70
74441;BME280;62870;54.692;25.284;2022-10-23T20:58:44;1027.3;;;12.7;69.8
74441;BME280;62870;54.692;25.284;2022-10-23T21:04:12;1027.3;;;12.6;69.9
74441;BME280;62870;54.692;25.284;2022-10-23T21:09:08;1027.2;;;12.6;69.9
74441;BME280;62870;54.692;25.284;2022-10-23T21:13:46;1027.4;;;12.6;69.9
74441;BME280;62870;54.692;25.284;2022-10-23T21:19:26;1027.4;;;12.5;70.2
74441;BME280;62870;54.692;25.284;2022-10-23T21:24:07;1027.4;;;12.5;70.3
74441;BME280;62870;54.692;25.284;2022-10-23T21:29:30;1027.5;;;12.5;70.2
74441;BME280;62870;54.692;25.284;2022-10-23T21:34:28;1027.5;;;12.6;70
74441;BME280;62870;54.692;25.284;2022-10-23T21:39:08;1027.5;;;12.6;70
74441;BME280;62870;54.692;25.284;2022-10-23T21:43:59;1027.5;;;12.6;69.9
74441;BME280;62870;54.692;25.284;2022-10-23T21:48:44;1027.5;;;12.7;69.9
74441;BME280;62870;54.692;25.284;2022-10-23T21:54:30;1027.6;;;12.8;69.8
74441;BME280;62870;54.692;25.284;2022-10-23T21:59:23;1027.6;;;12.9;69.4
74441;BME280;62870;54.692;25.284;2022-10-23T22:03:47;1027.6;;;12.9;69.2
74441;BME280;62870;54.692;25.284;2022-10-23T22:09:06;1027.6;;;12.9;68.9
74441;BME280;62870;54.692;25.284;2022-10-23T22:14:16;1027.6;;;12.9;69.1
74441;BME280;62870;54.692;25.284;2022-10-23T22:19:08;1027.7;;;12.9;69.4
74441;BME280;62870;54.692;25.284;2022-10-23T22:24:22;1027.8;;;13;69.2
74441;BME280;62870;54.692;25.284;2022-10-23T22:29:07;1027.8;;;13.1;68.8
74441;BME280;62870;54.692;25.284;2022-10-23T22:33:44;1027.8;;;13;68.4
74441;BME280;62870;54.692;25.284;2022-10-23T22:38:58;1027.9;;;13;67.7
74441;BME280;62870;54.692;25.284;2022-10-23T22:44:18;1028;;;13;67.4
74441;BME280;62870;54.692;25.284;2022-10-23T22:49:18;1028.1;;;13;67.2
74441;BME280;62870;54.692;25.284;2022-10-23T22:54:04;1028.1;;;13.1;67
74441;BME280;62870;54.692;25.284;2022-10-23T22:59:04;1028.1;;;13.1;66.7
74441;BME280;62870;54.692;25.284;2022-10-23T23:04:18;1028.1;;;13.1;66.5
74441;BME280;62870;54.692;25.284;2022-10-23T23:09:30;1028.1;;;13.1;65.6
74441;BME280;62870;54.692;25.284;2022-10-23T23:14:08;1028;;;13;65.1
74441;BME280;62870;54.692;25.284;2022-10-23T23:18:44;1028.1;;;12.9;64.8
74441;BME280;62870;54.692;25.284;2022-10-23T23:23:42;1028;;;12.9;64.9
74441;BME280;62870;54.692;25.284;2022-10-23T23:28:56;1028;;;12.8;65.2
74441;BME280;62870;54.692;25.284;2022-10-23T23:34:08;1028;;;12.8;65.2
74441;BME280;62870;54.692;25.284;2022-10-23T23:39:08;1028;;;12.8;64.7
74441;BME280;62870;54.692;25.284;2022-10-23T23:44:14;1028;;;12.7;64.2
74441;BME280;62870;54.692;25.284;2022-10-23T23:49:24;1028.1;;;12.7;63.6
74441;BME280;62870;54.692;25.284;2022-10-23T23:54:04;1028.1;;;12.8;63.9
74441;BME280;62870;54.692;25.284;2022-10-23T23:59:24;1028.2;;;12.9;63.9
